Eastlake, Colorado
Current Conditions -  °F | °C
As of 4:15 AM on Friday 28 Nov 2014 (Local Time) from KEIK Reporting Station
Clear Clear  
Wind Chill: 35°   Ceiling: Unl
Heat Index: 35°   Visibility: 10mi
Dew Point: 21°   Wind: 0mph
Humidity: 57%   Direction: NA
Pressure: 29.97"   Gusts: NA
Location:  39.92°N, 104.96°W
Report Text: KEIK 281115Z AUTO 00000KT 10SM CLR 02/M06 A2997 RMK AO2 T00181060
Loading
Personal Weather Stations






























Interactive Weather Map New forecast layout! Learn more

10-Day Weather Forecast

Advertisements
Track Severe Weather on mobile